sensor_id;sensor_type;location;lat;lon;timestamp;temperature;humidity
71839;SHT31;59687;37.520;15.068;2022-09-09T00:02:22;27.06;62.85
71839;SHT31;59687;37.520;15.068;2022-09-09T00:05:14;27.06;62.82
71839;SHT31;59687;37.520;15.068;2022-09-09T00:07:51;27.04;62.88
71839;SHT31;59687;37.520;15.068;2022-09-09T00:10:28;26.94;63.01
71839;SHT31;59687;37.520;15.068;2022-09-09T00:15:55;26.89;63.12
71839;SHT31;59687;37.520;15.068;2022-09-09T00:19:12;26.86;63.16
71839;SHT31;59687;37.520;15.068;2022-09-09T00:21:18;26.93;63.00
71839;SHT31;59687;37.520;15.068;2022-09-09T00:23:50;26.93;62.81
71839;SHT31;59687;37.520;15.068;2022-09-09T00:31:33;26.90;62.94
71839;SHT31;59687;37.520;15.068;2022-09-09T00:36:41;26.86;62.74
71839;SHT31;59687;37.520;15.068;2022-09-09T00:39:34;26.93;62.69
71839;SHT31;59687;37.520;15.068;2022-09-09T00:42:19;26.91;62.60
71839;SHT31;59687;37.520;15.068;2022-09-09T00:44:58;26.86;62.82
71839;SHT31;59687;37.520;15.068;2022-09-09T00:47:40;26.79;63.00
71839;SHT31;59687;37.520;15.068;2022-09-09T00:50:21;26.78;63.03
71839;SHT31;59687;37.520;15.068;2022-09-09T00:53:12;26.72;62.96
71839;SHT31;59687;37.520;15.068;2022-09-09T00:56:13;26.82;62.74
71839;SHT31;59687;37.520;15.068;2022-09-09T00:58:57;26.83;62.72
71839;SHT31;59687;37.520;15.068;2022-09-09T01:01:27;26.94;62.51
71839;SHT31;59687;37.520;15.068;2022-09-09T01:03:56;26.86;62.55
71839;SHT31;59687;37.520;15.068;2022-09-09T01:12:31;26.70;62.90
71839;SHT31;59687;37.520;15.068;2022-09-09T01:15:08;26.78;62.71
71839;SHT31;59687;37.520;15.068;2022-09-09T01:20:59;26.89;62.35
71839;SHT31;59687;37.520;15.068;2022-09-09T01:23:50;26.82;62.55
71839;SHT31;59687;37.520;15.068;2022-09-09T01:26:39;26.82;62.48
71839;SHT31;59687;37.520;15.068;2022-09-09T01:29:16;26.80;62.56
71839;SHT31;59687;37.520;15.068;2022-09-09T01:34:27;26.73;62.73
71839;SHT31;59687;37.520;15.068;2022-09-09T01:37:11;26.73;62.61
71839;SHT31;59687;37.520;15.068;2022-09-09T01:39:42;26.78;62.44
71839;SHT31;59687;37.520;15.068;2022-09-09T01:42:15;26.62;62.77
71839;SHT31;59687;37.520;15.068;2022-09-09T01:44:44;26.62;62.68
71839;SHT31;59687;37.520;15.068;2022-09-09T01:47:11;26.69;62.53
71839;SHT31;59687;37.520;15.068;2022-09-09T01:50:01;26.70;62.21
71839;SHT31;59687;37.520;15.068;2022-09-09T01:52:31;26.75;61.81
71839;SHT31;59687;37.520;15.068;2022-09-09T01:55:00;26.72;61.86
71839;SHT31;59687;37.520;15.068;2022-09-09T01:57:41;26.63;61.75
71839;SHT31;59687;37.520;15.068;2022-09-09T02:00:12;26.59;61.76
71839;SHT31;59687;37.520;15.068;2022-09-09T02:02:52;26.56;61.67
71839;SHT31;59687;37.520;15.068;2022-09-09T02:05:37;26.52;61.82
71839;SHT31;59687;37.520;15.068;2022-09-09T02:08:48;26.49;61.78
71839;SHT31;59687;37.520;15.068;2022-09-09T02:11:22;26.63;61.51
71839;SHT31;59687;37.520;15.068;2022-09-09T02:14:23;26.59;61.31
71839;SHT31;59687;37.520;15.068;2022-09-09T02:16:56;26.60;61.13
71839;SHT31;59687;37.520;15.068;2022-09-09T02:19:56;26.56;61.27
71839;SHT31;59687;37.520;15.068;2022-09-09T02:22:39;26.48;61.27
71839;SHT31;59687;37.520;15.068;2022-09-09T02:25:08;26.53;61.23
71839;SHT31;59687;37.520;15.068;2022-09-09T02:27:39;26.64;60.78
71839;SHT31;59687;37.520;15.068;2022-09-09T02:30:08;26.55;60.91
71839;SHT31;59687;37.520;15.068;2022-09-09T02:32:46;26.53;60.86
71839;SHT31;59687;37.520;15.068;2022-09-09T02:35:19;26.56;60.63
71839;SHT31;59687;37.520;15.068;2022-09-09T02:37:48;26.53;60.41
71839;SHT31;59687;37.520;15.068;2022-09-09T02:40:18;26.45;60.36
71839;SHT31;59687;37.520;15.068;2022-09-09T02:42:49;26.36;60.60
71839;SHT31;59687;37.520;15.068;2022-09-09T02:45:22;26.42;60.57
71839;SHT31;59687;37.520;15.068;2022-09-09T02:56:25;26.51;58.90
71839;SHT31;59687;37.520;15.068;2022-09-09T02:58:57;26.45;58.77
71839;SHT31;59687;37.520;15.068;2022-09-09T03:01:25;26.44;58.60
71839;SHT31;59687;37.520;15.068;2022-09-09T03:03:52;26.48;58.10
71839;SHT31;59687;37.520;15.068;2022-09-09T03:06:18;26.56;57.87
71839;SHT31;59687;37.520;15.068;2022-09-09T03:08:52;26.56;57.82
71839;SHT31;59687;37.520;15.068;2022-09-09T03:11:23;26.59;57.77
71839;SHT31;59687;37.520;15.068;2022-09-09T03:13:52;26.70;57.17
71839;SHT31;59687;37.520;15.068;2022-09-09T03:16:20;26.78;56.71
71839;SHT31;59687;37.520;15.068;2022-09-09T03:18:50;26.86;56.15
71839;SHT31;59687;37.520;15.068;2022-09-09T03:21:19;26.82;56.05
71839;SHT31;59687;37.520;15.068;2022-09-09T03:23:48;26.83;55.79
71839;SHT31;59687;37.520;15.068;2022-09-09T03:26:15;26.91;55.04
71839;SHT31;59687;37.520;15.068;2022-09-09T03:28:44;26.87;54.93
71839;SHT31;59687;37.520;15.068;2022-09-09T03:31:15;26.91;54.68
71839;SHT31;59687;37.520;15.068;2022-09-09T03:33:44;26.90;54.85
71839;SHT31;59687;37.520;15.068;2022-09-09T03:36:14;26.91;54.91
71839;SHT31;59687;37.520;15.068;2022-09-09T03:38:41;26.87;55.01
71839;SHT31;59687;37.520;15.068;2022-09-09T03:41:09;26.83;55.22
71839;SHT31;59687;37.520;15.068;2022-09-09T03:43:37;26.73;55.41
71839;SHT31;59687;37.520;15.068;2022-09-09T03:46:04;26.68;55.63
71839;SHT31;59687;37.520;15.068;2022-09-09T03:48:32;26.59;56.00
71839;SHT31;59687;37.520;15.068;2022-09-09T03:51:02;26.52;56.21
71839;SHT31;59687;37.520;15.068;2022-09-09T03:53:31;26.46;56.26
71839;SHT31;59687;37.520;15.068;2022-09-09T03:55:59;26.46;56.14
71839;SHT31;59687;37.520;15.068;2022-09-09T03:58:27;26.44;55.96
71839;SHT31;59687;37.520;15.068;2022-09-09T04:01:13;26.42;56.06
71839;SHT31;59687;37.520;15.068;2022-09-09T04:03:42;26.41;55.99
71839;SHT31;59687;37.520;15.068;2022-09-09T04:06:10;26.34;56.19
71839;SHT31;59687;37.520;15.068;2022-09-09T04:08:40;26.29;56.26
71839;SHT31;59687;37.520;15.068;2022-09-09T04:11:08;26.20;56.42
71839;SHT31;59687;37.520;15.068;2022-09-09T04:13:38;26.14;56.76
71839;SHT31;59687;37.520;15.068;2022-09-09T04:16:11;26.29;56.07
71839;SHT31;59687;37.520;15.068;2022-09-09T04:18:41;26.21;55.98
71839;SHT31;59687;37.520;15.068;2022-09-09T04:21:09;26.08;56.26
71839;SHT31;59687;37.520;15.068;2022-09-09T04:23:36;25.93;56.86
71839;SHT31;59687;37.520;15.068;2022-09-09T04:26:05;25.94;56.34
71839;SHT31;59687;37.520;15.068;2022-09-09T04:28:35;25.97;56.64
71839;SHT31;59687;37.520;15.068;2022-09-09T04:31:08;26.04;56.09
71839;SHT31;59687;37.520;15.068;2022-09-09T04:33:37;26.03;56.44
71839;SHT31;59687;37.520;15.068;2022-09-09T04:36:06;26.17;55.72
71839;SHT31;59687;37.520;15.068;2022-09-09T04:38:34;26.25;55.17
71839;SHT31;59687;37.520;15.068;2022-09-09T04:41:02;26.38;54.54
71839;SHT31;59687;37.520;15.068;2022-09-09T04:43:31;26.48;54.15
71839;SHT31;59687;37.520;15.068;2022-09-09T04:46:00;26.45;54.09
71839;SHT31;59687;37.520;15.068;2022-09-09T04:48:27;26.51;54.15
71839;SHT31;59687;37.520;15.068;2022-09-09T04:50:59;26.59;53.73
71839;SHT31;59687;37.520;15.068;2022-09-09T04:53:29;26.66;53.08
71839;SHT31;59687;37.520;15.068;2022-09-09T04:56:11;26.76;53.29
71839;SHT31;59687;37.520;15.068;2022-09-09T04:58:44;26.73;55.24
71839;SHT31;59687;37.520;15.068;2022-09-09T05:01:18;26.73;56.11
71839;SHT31;59687;37.520;15.068;2022-09-09T05:03:47;26.68;56.40
71839;SHT31;59687;37.520;15.068;2022-09-09T05:06:20;26.46;57.54
71839;SHT31;59687;37.520;15.068;2022-09-09T05:08:52;26.42;57.72
71839;SHT31;59687;37.520;15.068;2022-09-09T05:11:25;26.44;57.88
71839;SHT31;59687;37.520;15.068;2022-09-09T05:13:56;26.56;57.97
71839;SHT31;59687;37.520;15.068;2022-09-09T05:16:24;26.76;57.29
71839;SHT31;59687;37.520;15.068;2022-09-09T05:18:52;26.87;56.59
71839;SHT31;59687;37.520;15.068;2022-09-09T05:21:21;26.98;56.08
71839;SHT31;59687;37.520;15.068;2022-09-09T05:23:49;27.01;55.71
71839;SHT31;59687;37.520;15.068;2022-09-09T05:26:21;27.01;54.92
71839;SHT31;59687;37.520;15.068;2022-09-09T05:28:51;27.18;55.34
71839;SHT31;59687;37.520;15.068;2022-09-09T05:31:19;27.25;55.09
71839;SHT31;59687;37.520;15.068;2022-09-09T05:33:50;27.43;53.67
71839;SHT31;59687;37.520;15.068;2022-09-09T05:36:19;27.49;53.83
71839;SHT31;59687;37.520;15.068;2022-09-09T05:38:49;27.58;53.82
71839;SHT31;59687;37.520;15.068;2022-09-09T05:41:18;27.62;53.49
71839;SHT31;59687;37.520;15.068;2022-09-09T05:43:46;27.52;53.69
71839;SHT31;59687;37.520;15.068;2022-09-09T05:46:19;27.77;52.96
71839;SHT31;59687;37.520;15.068;2022-09-09T05:48:49;28.07;52.32
71839;SHT31;59687;37.520;15.068;2022-09-09T05:51:25;28.21;51.97
71839;SHT31;59687;37.520;15.068;2022-09-09T05:53:55;28.62;51.46
71839;SHT31;59687;37.520;15.068;2022-09-09T05:56:28;28.53;49.78
71839;SHT31;59687;37.520;15.068;2022-09-09T05:58:58;28.63;49.77
71839;SHT31;59687;37.520;15.068;2022-09-09T06:01:28;29.10;49.48
71839;SHT31;59687;37.520;15.068;2022-09-09T06:03:56;29.66;48.40
71839;SHT31;59687;37.520;15.068;2022-09-09T06:06:26;30.05;46.54
71839;SHT31;59687;37.520;15.068;2022-09-09T06:08:57;29.76;46.26
71839;SHT31;59687;37.520;15.068;2022-09-09T06:11:30;29.84;46.81
71839;SHT31;59687;37.520;15.068;2022-09-09T06:13:58;29.96;45.72
71839;SHT31;59687;37.520;15.068;2022-09-09T06:16:28;30.52;45.86
71839;SHT31;59687;37.520;15.068;2022-09-09T06:18:56;30.94;43.51
71839;SHT31;59687;37.520;15.068;2022-09-09T06:21:30;31.46;42.75
71839;SHT31;59687;37.520;15.068;2022-09-09T06:24:00;31.91;41.61
71839;SHT31;59687;37.520;15.068;2022-09-09T06:26:30;32.17;41.13
71839;SHT31;59687;37.520;15.068;2022-09-09T06:29:00;32.45;40.71
71839;SHT31;59687;37.520;15.068;2022-09-09T06:31:28;32.55;39.77
71839;SHT31;59687;37.520;15.068;2022-09-09T06:34:01;32.04;41.02
71839;SHT31;59687;37.520;15.068;2022-09-09T06:36:31;32.36;39.58
71839;SHT31;59687;37.520;15.068;2022-09-09T06:39:00;32.56;39.18
71839;SHT31;59687;37.520;15.068;2022-09-09T06:41:30;32.56;38.61
71839;SHT31;59687;37.520;15.068;2022-09-09T06:44:01;32.73;39.26
71839;SHT31;59687;37.520;15.068;2022-09-09T06:46:39;32.31;39.40
71839;SHT31;59687;37.520;15.068;2022-09-09T06:49:08;32.52;39.16
71839;SHT31;59687;37.520;15.068;2022-09-09T06:51:38;32.55;39.07
71839;SHT31;59687;37.520;15.068;2022-09-09T06:54:28;33.00;38.98
71839;SHT31;59687;37.520;15.068;2022-09-09T06:56:58;33.11;38.11
71839;SHT31;59687;37.520;15.068;2022-09-09T06:59:30;32.66;39.09
71839;SHT31;59687;37.520;15.068;2022-09-09T07:01:58;32.33;39.74
71839;SHT31;59687;37.520;15.068;2022-09-09T07:04:26;32.33;39.38
71839;SHT31;59687;37.520;15.068;2022-09-09T07:06:54;32.39;39.75
71839;SHT31;59687;37.520;15.068;2022-09-09T07:09:23;32.77;39.20
71839;SHT31;59687;37.520;15.068;2022-09-09T07:11:52;33.00;38.72
71839;SHT31;59687;37.520;15.068;2022-09-09T07:14:21;33.12;38.32
71839;SHT31;59687;37.520;15.068;2022-09-09T07:16:54;33.43;37.76
71839;SHT31;59687;37.520;15.068;2022-09-09T07:19:23;33.49;37.75
71839;SHT31;59687;37.520;15.068;2022-09-09T07:21:52;33.70;37.30
71839;SHT31;59687;37.520;15.068;2022-09-09T07:24:21;34.00;37.19
71839;SHT31;59687;37.520;15.068;2022-09-09T07:26:48;34.07;36.63
71839;SHT31;59687;37.520;15.068;2022-09-09T07:29:16;33.26;37.99
71839;SHT31;59687;37.520;15.068;2022-09-09T07:31:46;33.42;38.34
71839;SHT31;59687;37.520;15.068;2022-09-09T07:34:17;34.38;37.33
71839;SHT31;59687;37.520;15.068;2022-09-09T07:36:47;34.77;36.13
71839;SHT31;59687;37.520;15.068;2022-09-09T07:39:16;35.18;35.75
71839;SHT31;59687;37.520;15.068;2022-09-09T07:41:52;34.70;36.11
71839;SHT31;59687;37.520;15.068;2022-09-09T07:44:24;34.36;36.84
71839;SHT31;59687;37.520;15.068;2022-09-09T07:47:17;34.17;36.90
71839;SHT31;59687;37.520;15.068;2022-09-09T07:49:46;34.22;36.89
71839;SHT31;59687;37.520;15.068;2022-09-09T07:52:17;34.97;36.15
71839;SHT31;59687;37.520;15.068;2022-09-09T07:54:47;34.91;35.87
71839;SHT31;59687;37.520;15.068;2022-09-09T07:57:14;35.03;36.06
71839;SHT31;59687;37.520;15.068;2022-09-09T07:59:44;35.19;35.71
71839;SHT31;59687;37.520;15.068;2022-09-09T08:02:12;35.04;35.70
71839;SHT31;59687;37.520;15.068;2022-09-09T08:04:40;35.48;35.71
71839;SHT31;59687;37.520;15.068;2022-09-09T08:07:09;35.08;35.90
71839;SHT31;59687;37.520;15.068;2022-09-09T08:09:44;35.34;35.60
71839;SHT31;59687;37.520;15.068;2022-09-09T08:12:19;35.17;35.78
71839;SHT31;59687;37.520;15.068;2022-09-09T08:14:46;35.25;35.54
71839;SHT31;59687;37.520;15.068;2022-09-09T08:17:13;35.19;35.81
71839;SHT31;59687;37.520;15.068;2022-09-09T08:19:41;35.19;35.57
71839;SHT31;59687;37.520;15.068;2022-09-09T08:22:12;35.31;35.46
71839;SHT31;59687;37.520;15.068;2022-09-09T08:24:39;35.22;35.56
71839;SHT31;59687;37.520;15.068;2022-09-09T08:27:08;35.55;35.29
71839;SHT31;59687;37.520;15.068;2022-09-09T08:29:38;36.55;34.21
71839;SHT31;59687;37.520;15.068;2022-09-09T08:32:05;37.25;33.32
71839;SHT31;59687;37.520;15.068;2022-09-09T08:34:33;37.17;33.14
71839;SHT31;59687;37.520;15.068;2022-09-09T08:37:05;36.23;34.03
71839;SHT31;59687;37.520;15.068;2022-09-09T08:39:37;36.65;33.53
71839;SHT31;59687;37.520;15.068;2022-09-09T08:42:24;36.62;33.70
71839;SHT31;59687;37.520;15.068;2022-09-09T08:50:38;36.08;34.62
71839;SHT31;59687;37.520;15.068;2022-09-09T08:53:20;36.08;34.33
71839;SHT31;59687;37.520;15.068;2022-09-09T08:55:52;36.69;34.33
71839;SHT31;59687;37.520;15.068;2022-09-09T08:58:33;37.38;34.72
71839;SHT31;59687;37.520;15.068;2022-09-09T09:04:07;38.31;33.67
71839;SHT31;59687;37.520;15.068;2022-09-09T09:06:54;37.37;35.21
71839;SHT31;59687;37.520;15.068;2022-09-09T09:09:42;37.54;34.62
71839;SHT31;59687;37.520;15.068;2022-09-09T09:12:25;38.00;34.27
71839;SHT31;59687;37.520;15.068;2022-09-09T09:14:55;37.82;34.33
71839;SHT31;59687;37.520;15.068;2022-09-09T09:17:28;38.52;32.71
71839;SHT31;59687;37.520;15.068;2022-09-09T09:19:58;38.75;32.53
71839;SHT31;59687;37.520;15.068;2022-09-09T09:25:27;38.32;33.47
71839;SHT31;59687;37.520;15.068;2022-09-09T09:28:17;38.11;32.42
71839;SHT31;59687;37.520;15.068;2022-09-09T09:30:55;38.27;33.17
71839;SHT31;59687;37.520;15.068;2022-09-09T09:33:36;37.68;34.91
71839;SHT31;59687;37.520;15.068;2022-09-09T09:36:08;37.39;35.68
71839;SHT31;59687;37.520;15.068;2022-09-09T09:38:37;37.34;35.91
71839;SHT31;59687;37.520;15.068;2022-09-09T09:41:30;38.34;34.08
71839;SHT31;59687;37.520;15.068;2022-09-09T09:43:58;38.42;33.84
71839;SHT31;59687;37.520;15.068;2022-09-09T09:46:25;38.27;34.09
71839;SHT31;59687;37.520;15.068;2022-09-09T09:49:00;38.16;33.86
71839;SHT31;59687;37.520;15.068;2022-09-09T09:51:31;38.11;33.70
71839;SHT31;59687;37.520;15.068;2022-09-09T09:56:47;38.69;31.53
71839;SHT31;59687;37.520;15.068;2022-09-09T09:59:34;39.20;30.36
71839;SHT31;59687;37.520;15.068;2022-09-09T10:02:17;40.51;29.06
71839;SHT31;59687;37.520;15.068;2022-09-09T10:04:48;40.97;28.99
71839;SHT31;59687;37.520;15.068;2022-09-09T10:07:21;41.30;28.54
71839;SHT31;59687;37.520;15.068;2022-09-09T10:09:53;41.20;28.04
71839;SHT31;59687;37.520;15.068;2022-09-09T10:12:59;42.07;26.34
71839;SHT31;59687;37.520;15.068;2022-09-09T10:15:41;42.73;25.82
71839;SHT31;59687;37.520;15.068;2022-09-09T10:23:44;42.20;26.32
71839;SHT31;59687;37.520;15.068;2022-09-09T10:40:25;42.45;27.05
71839;SHT31;59687;37.520;15.068;2022-09-09T10:42:58;42.99;26.61
71839;SHT31;59687;37.520;15.068;2022-09-09T10:45:49;42.14;27.97
71839;SHT31;59687;37.520;15.068;2022-09-09T10:51:00;41.97;29.04
71839;SHT31;59687;37.520;15.068;2022-09-09T10:53:53;42.73;27.50
71839;SHT31;59687;37.520;15.068;2022-09-09T10:56:23;43.66;26.61
71839;SHT31;59687;37.520;15.068;2022-09-09T10:59:04;43.35;27.29
71839;SHT31;59687;37.520;15.068;2022-09-09T11:01:43;44.44;26.62
71839;SHT31;59687;37.520;15.068;2022-09-09T11:08:33;45.33;25.75
71839;SHT31;59687;37.520;15.068;2022-09-09T11:18:50;43.13;26.99
71839;SHT31;59687;37.520;15.068;2022-09-09T11:21:29;44.93;25.41
71839;SHT31;59687;37.520;15.068;2022-09-09T11:24:11;44.90;24.39
71839;SHT31;59687;37.520;15.068;2022-09-09T11:26:54;45.58;24.74
71839;SHT31;59687;37.520;15.068;2022-09-09T11:29:37;47.25;22.77
71839;SHT31;59687;37.520;15.068;2022-09-09T11:40:24;45.89;25.18
71839;SHT31;59687;37.520;15.068;2022-09-09T11:43:12;45.58;25.48
71839;SHT31;59687;37.520;15.068;2022-09-09T11:45:42;44.23;27.12
71839;SHT31;59687;37.520;15.068;2022-09-09T11:48:43;43.54;28.05
71839;SHT31;59687;37.520;15.068;2022-09-09T11:56:42;43.35;28.25
71839;SHT31;59687;37.520;15.068;2022-09-09T11:59:20;44.31;27.20
71839;SHT31;59687;37.520;15.068;2022-09-09T12:04:31;42.55;29.19
71839;SHT31;59687;37.520;15.068;2022-09-09T12:09:36;43.96;27.61
71839;SHT31;59687;37.520;15.068;2022-09-09T12:14:42;44.32;27.33
71839;SHT31;59687;37.520;15.068;2022-09-09T12:17:57;46.58;25.33
71839;SHT31;59687;37.520;15.068;2022-09-09T12:20:17;47.49;24.18
71839;SHT31;59687;37.520;15.068;2022-09-09T12:33:12;44.48;26.74
71839;SHT31;59687;37.520;15.068;2022-09-09T12:35:42;44.13;26.63
71839;SHT31;59687;37.520;15.068;2022-09-09T12:38:15;44.59;26.14
71839;SHT31;59687;37.520;15.068;2022-09-09T12:40:57;44.19;26.83
71839;SHT31;59687;37.520;15.068;2022-09-09T12:43:26;45.06;28.41
71839;SHT31;59687;37.520;15.068;2022-09-09T12:45:57;45.35;26.83
71839;SHT31;59687;37.520;15.068;2022-09-09T12:48:45;45.69;27.66
71839;SHT31;59687;37.520;15.068;2022-09-09T12:51:24;46.23;26.29
71839;SHT31;59687;37.520;15.068;2022-09-09T12:53:52;45.31;27.71
71839;SHT31;59687;37.520;15.068;2022-09-09T12:56:21;45.31;25.84
71839;SHT31;59687;37.520;15.068;2022-09-09T12:58:51;45.34;26.08
71839;SHT31;59687;37.520;15.068;2022-09-09T13:01:24;46.00;25.09
71839;SHT31;59687;37.520;15.068;2022-09-09T13:03:52;44.32;26.77
71839;SHT31;59687;37.520;15.068;2022-09-09T13:06:30;43.48;29.23
71839;SHT31;59687;37.520;15.068;2022-09-09T13:08:59;43.97;29.17
71839;SHT31;59687;37.520;15.068;2022-09-09T13:11:37;44.92;28.52
71839;SHT31;59687;37.520;15.068;2022-09-09T13:14:05;45.20;28.61
71839;SHT31;59687;37.520;15.068;2022-09-09T13:16:34;43.62;30.07
71839;SHT31;59687;37.520;15.068;2022-09-09T13:19:13;42.54;32.02
71839;SHT31;59687;37.520;15.068;2022-09-09T13:21:41;42.90;31.42
71839;SHT31;59687;37.520;15.068;2022-09-09T13:24:33;42.88;31.47
71839;SHT31;59687;37.520;15.068;2022-09-09T13:27:04;42.99;31.09
71839;SHT31;59687;37.520;15.068;2022-09-09T13:29:32;42.44;31.75
71839;SHT31;59687;37.520;15.068;2022-09-09T13:32:07;42.80;31.14
71839;SHT31;59687;37.520;15.068;2022-09-09T13:34:39;42.90;31.31
71839;SHT31;59687;37.520;15.068;2022-09-09T13:37:37;42.30;31.82
71839;SHT31;59687;37.520;15.068;2022-09-09T13:40:06;41.65;33.00
71839;SHT31;59687;37.520;15.068;2022-09-09T13:42:39;41.45;33.32
71839;SHT31;59687;37.520;15.068;2022-09-09T13:45:18;41.15;34.05
71839;SHT31;59687;37.520;15.068;2022-09-09T13:47:50;41.27;33.50
71839;SHT31;59687;37.520;15.068;2022-09-09T13:50:27;40.49;34.24
71839;SHT31;59687;37.520;15.068;2022-09-09T13:52:57;41.90;32.36
71839;SHT31;59687;37.520;15.068;2022-09-09T13:55:28;42.38;31.97
71839;SHT31;59687;37.520;15.068;2022-09-09T13:57:58;42.06;32.79
71839;SHT31;59687;37.520;15.068;2022-09-09T14:00:29;42.03;32.92
71839;SHT31;59687;37.520;15.068;2022-09-09T14:02:58;41.79;33.27
71839;SHT31;59687;37.520;15.068;2022-09-09T14:05:26;41.02;33.94
71839;SHT31;59687;37.520;15.068;2022-09-09T14:07:55;40.90;33.55
71839;SHT31;59687;37.520;15.068;2022-09-09T14:10:22;40.30;32.03
71839;SHT31;59687;37.520;15.068;2022-09-09T14:12:49;40.34;35.23
71839;SHT31;59687;37.520;15.068;2022-09-09T14:15:16;39.80;32.79
71839;SHT31;59687;37.520;15.068;2022-09-09T14:17:43;39.18;34.63
71839;SHT31;59687;37.520;15.068;2022-09-09T14:20:11;38.94;31.73
71839;SHT31;59687;37.520;15.068;2022-09-09T14:22:38;38.27;36.97
71839;SHT31;59687;37.520;15.068;2022-09-09T14:25:08;37.99;39.22
71839;SHT31;59687;37.520;15.068;2022-09-09T14:27:40;37.82;39.64
71839;SHT31;59687;37.520;15.068;2022-09-09T14:30:07;37.76;40.05
71839;SHT31;59687;37.520;15.068;2022-09-09T14:32:35;37.06;39.65
71839;SHT31;59687;37.520;15.068;2022-09-09T14:35:02;36.87;42.53
71839;SHT31;59687;37.520;15.068;2022-09-09T14:37:29;36.91;37.07
71839;SHT31;59687;37.520;15.068;2022-09-09T14:39:57;36.88;43.36
71839;SHT31;59687;37.520;15.068;2022-09-09T14:42:24;36.62;43.46
71839;SHT31;59687;37.520;15.068;2022-09-09T14:44:53;36.68;43.17
71839;SHT31;59687;37.520;15.068;2022-09-09T14:47:20;36.41;43.57
71839;SHT31;59687;37.520;15.068;2022-09-09T14:49:48;36.34;44.05
71839;SHT31;59687;37.520;15.068;2022-09-09T14:52:16;36.27;42.95
71839;SHT31;59687;37.520;15.068;2022-09-09T14:54:43;35.82;45.58
71839;SHT31;59687;37.520;15.068;2022-09-09T14:57:10;35.67;45.39
71839;SHT31;59687;37.520;15.068;2022-09-09T14:59:36;35.41;45.27
71839;SHT31;59687;37.520;15.068;2022-09-09T15:02:04;35.41;44.51
71839;SHT31;59687;37.520;15.068;2022-09-09T15:04:31;35.41;44.84
71839;SHT31;59687;37.520;15.068;2022-09-09T15:06:58;35.28;44.83
71839;SHT31;59687;37.520;15.068;2022-09-09T15:09:26;35.49;45.11
71839;SHT31;59687;37.520;15.068;2022-09-09T15:11:54;35.49;44.36
71839;SHT31;59687;37.520;15.068;2022-09-09T15:14:21;35.58;46.10
71839;SHT31;59687;37.520;15.068;2022-09-09T15:16:51;35.28;46.43
71839;SHT31;59687;37.520;15.068;2022-09-09T15:19:18;35.19;47.72
71839;SHT31;59687;37.520;15.068;2022-09-09T15:21:44;35.28;46.76
71839;SHT31;59687;37.520;15.068;2022-09-09T15:24:11;35.27;47.39
71839;SHT31;59687;37.520;15.068;2022-09-09T15:26:40;35.13;47.95
71839;SHT31;59687;37.520;15.068;2022-09-09T15:29:07;35.07;46.89
71839;SHT31;59687;37.520;15.068;2022-09-09T15:31:36;34.97;45.51
71839;SHT31;59687;37.520;15.068;2022-09-09T15:34:05;35.13;40.53
71839;SHT31;59687;37.520;15.068;2022-09-09T15:36:33;35.21;39.25
71839;SHT31;59687;37.520;15.068;2022-09-09T15:39:02;35.46;37.82
71839;SHT31;59687;37.520;15.068;2022-09-09T15:41:33;35.60;37.15
71839;SHT31;59687;37.520;15.068;2022-09-09T15:44:01;35.76;37.18
71839;SHT31;59687;37.520;15.068;2022-09-09T15:46:37;35.86;37.37
71839;SHT31;59687;37.520;15.068;2022-09-09T15:49:16;35.74;37.55
71839;SHT31;59687;37.520;15.068;2022-09-09T15:51:51;35.62;37.82
71839;SHT31;59687;37.520;15.068;2022-09-09T15:54:20;35.50;37.96
71839;SHT31;59687;37.520;15.068;2022-09-09T15:57:00;35.45;37.99
71839;SHT31;59687;37.520;15.068;2022-09-09T15:59:29;35.37;38.68
71839;SHT31;59687;37.520;15.068;2022-09-09T16:01:57;35.28;38.96
71839;SHT31;59687;37.520;15.068;2022-09-09T16:04:26;35.10;38.91
71839;SHT31;59687;37.520;15.068;2022-09-09T16:07:03;35.08;39.26
71839;SHT31;59687;37.520;15.068;2022-09-09T16:09:31;35.00;39.42
71839;SHT31;59687;37.520;15.068;2022-09-09T16:11:59;34.83;39.50
71839;SHT31;59687;37.520;15.068;2022-09-09T16:14:33;34.79;39.94
71839;SHT31;59687;37.520;15.068;2022-09-09T16:17:03;34.60;40.35
71839;SHT31;59687;37.520;15.068;2022-09-09T16:19:30;34.56;40.57
71839;SHT31;59687;37.520;15.068;2022-09-09T16:21:57;34.48;41.12
71839;SHT31;59687;37.520;15.068;2022-09-09T16:24:24;34.29;41.54
71839;SHT31;59687;37.520;15.068;2022-09-09T16:26:53;34.31;41.70
71839;SHT31;59687;37.520;15.068;2022-09-09T16:29:21;34.14;41.92
71839;SHT31;59687;37.520;15.068;2022-09-09T16:31:49;34.11;42.42
71839;SHT31;59687;37.520;15.068;2022-09-09T16:34:17;33.94;42.46
71839;SHT31;59687;37.520;15.068;2022-09-09T16:36:47;33.78;42.75
71839;SHT31;59687;37.520;15.068;2022-09-09T16:39:20;33.67;43.05
71839;SHT31;59687;37.520;15.068;2022-09-09T16:41:48;33.56;43.39
71839;SHT31;59687;37.520;15.068;2022-09-09T16:44:17;33.50;43.47
71839;SHT31;59687;37.520;15.068;2022-09-09T16:46:47;33.33;44.02
71839;SHT31;59687;37.520;15.068;2022-09-09T16:49:15;33.32;44.20
71839;SHT31;59687;37.520;15.068;2022-09-09T16:51:49;33.19;44.63
71839;SHT31;59687;37.520;15.068;2022-09-09T16:54:20;33.15;45.12
71839;SHT31;59687;37.520;15.068;2022-09-09T16:56:49;32.97;45.75
71839;SHT31;59687;37.520;15.068;2022-09-09T16:59:19;32.83;46.27
71839;SHT31;59687;37.520;15.068;2022-09-09T17:01:49;32.66;46.81
71839;SHT31;59687;37.520;15.068;2022-09-09T17:04:19;32.40;47.31
71839;SHT31;59687;37.520;15.068;2022-09-09T17:06:52;32.35;47.06
71839;SHT31;59687;37.520;15.068;2022-09-09T17:09:21;32.27;47.52
71839;SHT31;59687;37.520;15.068;2022-09-09T17:11:49;32.21;47.66
71839;SHT31;59687;37.520;15.068;2022-09-09T17:14:19;32.04;48.28
71839;SHT31;59687;37.520;15.068;2022-09-09T17:16:46;31.97;48.65
71839;SHT31;59687;37.520;15.068;2022-09-09T17:19:13;31.84;49.41
71839;SHT31;59687;37.520;15.068;2022-09-09T17:21:41;31.78;49.92
71839;SHT31;59687;37.520;15.068;2022-09-09T17:24:20;31.62;50.54
71839;SHT31;59687;37.520;15.068;2022-09-09T17:26:48;31.59;51.03
71839;SHT31;59687;37.520;15.068;2022-09-09T17:29:16;31.46;51.60
71839;SHT31;59687;37.520;15.068;2022-09-09T17:31:43;31.49;51.62
71839;SHT31;59687;37.520;15.068;2022-09-09T17:34:10;31.42;52.05
71839;SHT31;59687;37.520;15.068;2022-09-09T17:36:37;31.39;52.18
71839;SHT31;59687;37.520;15.068;2022-09-09T17:39:05;31.26;52.44
71839;SHT31;59687;37.520;15.068;2022-09-09T17:41:37;31.31;52.71